createdAt,value
2023-01-20T00:00:07.580Z,54.29
2023-01-20T00:01:07.620Z,51.97
2023-01-20T00:02:07.565Z,45.63
2023-01-20T00:03:07.559Z,52.69
2023-01-20T00:04:07.559Z,49.91
2023-01-20T00:05:07.553Z,52.79
2023-01-20T00:06:07.546Z,45.32
2023-01-20T00:07:07.534Z,47.27
2023-01-20T00:08:07.488Z,51.61
2023-01-20T00:09:07.499Z,51.94
2023-01-20T00:10:07.499Z,59.23
2023-01-20T00:11:07.473Z,52.35
2023-01-20T00:12:07.460Z,55.71
2023-01-20T00:13:07.449Z,47.23
2023-01-20T00:14:07.436Z,51.60
2023-01-20T00:15:07.438Z,46.30
2023-01-20T00:16:07.492Z,51.34
2023-01-20T00:17:07.427Z,58.37
2023-01-20T00:18:07.406Z,49.20
2023-01-20T00:19:07.415Z,44.52
2023-01-20T00:20:07.377Z,49.40
2023-01-20T00:21:07.363Z,53.24
2023-01-20T00:22:07.388Z,60.42
2023-01-20T00:23:07.359Z,55.50
2023-01-20T00:24:07.340Z,53.16
2023-01-20T00:25:07.338Z,50.78
2023-01-20T00:26:07.324Z,50.97
2023-01-20T00:27:07.347Z,49.83
2023-01-20T00:28:07.359Z,47.01
2023-01-20T00:29:07.282Z,43.19
2023-01-20T00:30:07.300Z,50.92
2023-01-20T00:31:07.308Z,66.84
2023-01-20T00:32:08.269Z,52.14
2023-01-20T00:33:07.254Z,44.58
2023-01-20T00:34:07.255Z,47.81
2023-01-20T00:35:07.244Z,45.75
2023-01-20T00:36:07.251Z,49.24
2023-01-20T00:37:07.222Z,47.86
2023-01-20T00:38:07.206Z,53.99
2023-01-20T00:39:07.202Z,55.66
2023-01-20T00:40:07.206Z,45.98
2023-01-20T00:41:07.187Z,50.31
2023-01-20T00:42:07.190Z,61.37
2023-01-20T00:43:07.167Z,52.05
2023-01-20T00:44:07.154Z,49.11
2023-01-20T00:45:07.139Z,47.13
2023-01-20T00:46:07.127Z,45.15
2023-01-20T00:47:07.136Z,46.35
2023-01-20T00:48:07.109Z,45.98
2023-01-20T00:49:07.123Z,47.45
2023-01-20T00:50:07.092Z,57.62
2023-01-20T00:51:07.089Z,44.75
2023-01-20T00:52:07.075Z,48.43
2023-01-20T00:53:07.067Z,44.61
2023-01-20T00:54:07.067Z,59.25
2023-01-20T00:55:07.070Z,52.87
2023-01-20T00:56:07.057Z,60.95
2023-01-20T00:57:07.019Z,52.02
2023-01-20T00:58:07.025Z,50.00
2023-01-20T00:59:07.026Z,45.06
2023-01-20T01:00:06.994Z,46.24
2023-01-20T01:01:07.057Z,46.82
2023-01-20T01:02:07.156Z,44.29
2023-01-20T01:03:06.964Z,44.67
2023-01-20T01:04:06.974Z,45.68
2023-01-20T01:05:06.953Z,51.89
2023-01-20T01:06:06.930Z,47.05
2023-01-20T01:07:06.935Z,46.88
2023-01-20T01:08:06.907Z,47.57
2023-01-20T01:09:06.933Z,46.85
2023-01-20T01:10:06.899Z,48.80
2023-01-20T01:11:06.920Z,50.17
2023-01-20T01:12:06.871Z,53.22
2023-01-20T01:13:06.864Z,46.67
2023-01-20T01:14:06.884Z,52.67
2023-01-20T01:15:06.845Z,61.70
2023-01-20T01:16:06.868Z,55.21
2023-01-20T01:17:06.811Z,46.20
2023-01-20T01:18:06.833Z,56.47
2023-01-20T01:19:06.812Z,50.55
2023-01-20T01:20:06.806Z,49.03
2023-01-20T01:21:06.789Z,48.02
2023-01-20T01:22:06.807Z,51.66
2023-01-20T01:23:06.764Z,44.59
2023-01-20T01:24:06.761Z,46.76
2023-01-20T01:25:06.802Z,49.37
2023-01-20T01:26:06.745Z,47.08
2023-01-20T01:27:06.733Z,57.13
2023-01-20T01:28:06.718Z,65.22
2023-01-20T01:29:06.727Z,50.93
2023-01-20T01:30:06.734Z,59.98
2023-01-20T01:31:06.800Z,50.37
2023-01-20T01:32:07.678Z,48.86
2023-01-20T01:33:06.676Z,58.68
2023-01-20T01:34:06.659Z,48.43
2023-01-20T01:35:06.713Z,52.72
2023-01-20T01:36:06.653Z,46.48
2023-01-20T01:37:06.629Z,53.69
2023-01-20T01:38:06.652Z,47.38
2023-01-20T01:39:06.618Z,51.39
2023-01-20T01:40:06.650Z,60.19
2023-01-20T01:41:06.603Z,56.53
2023-01-20T01:42:06.596Z,62.82
2023-01-20T01:43:06.569Z,52.86
2023-01-20T01:44:06.571Z,49.18
2023-01-20T01:45:06.565Z,53.77
2023-01-20T01:46:06.623Z,52.67
2023-01-20T01:47:06.540Z,49.08
2023-01-20T01:48:06.536Z,54.53
2023-01-20T01:49:06.528Z,52.46
2023-01-20T01:50:06.514Z,47.50
2023-01-20T01:51:38.429Z,45.02
2023-01-20T01:52:06.531Z,44.52
2023-01-20T01:53:06.512Z,55.09
2023-01-20T01:54:06.482Z,52.34
2023-01-20T01:55:06.472Z,62.13
2023-01-20T01:56:06.493Z,50.91
2023-01-20T01:57:06.452Z,47.13
2023-01-20T01:58:06.449Z,48.34
2023-01-20T01:59:06.437Z,51.01
2023-01-20T02:00:06.417Z,49.00
2023-01-20T02:01:06.498Z,50.64
2023-01-20T02:02:06.412Z,48.04
2023-01-20T02:03:06.377Z,49.70
2023-01-20T02:04:06.395Z,47.18
2023-01-20T02:05:06.368Z,46.96
2023-01-20T02:06:06.374Z,52.65
2023-01-20T02:07:06.402Z,45.39
2023-01-20T02:08:06.354Z,45.76
2023-01-20T02:09:06.338Z,44.71
2023-01-20T02:10:06.328Z,49.30
2023-01-20T02:11:06.315Z,50.90
2023-01-20T02:12:06.348Z,59.46
2023-01-20T02:13:06.296Z,48.82
2023-01-20T02:14:06.288Z,48.76
2023-01-20T02:15:06.292Z,53.82
2023-01-20T02:16:06.302Z,50.68
2023-01-20T02:17:06.287Z,46.38
2023-01-20T02:18:06.243Z,49.21
2023-01-20T02:19:06.261Z,50.62
2023-01-20T02:20:06.233Z,45.49
2023-01-20T02:21:06.263Z,49.25
2023-01-20T02:22:06.217Z,44.86
2023-01-20T02:23:06.226Z,48.85
2023-01-20T02:24:06.193Z,44.33
2023-01-20T02:25:06.195Z,48.80
2023-01-20T02:26:06.170Z,50.90
2023-01-20T02:27:06.159Z,48.06
2023-01-20T02:28:06.188Z,50.31
2023-01-20T02:29:06.142Z,44.29
2023-01-20T02:30:06.133Z,50.63
2023-01-20T02:31:06.126Z,58.76
2023-01-20T02:32:06.114Z,46.09
2023-01-20T02:33:07.119Z,47.50
2023-01-20T02:34:06.110Z,49.80
2023-01-20T02:35:06.087Z,51.86
2023-01-20T02:36:06.088Z,49.13
2023-01-20T02:37:06.079Z,46.04
2023-01-20T02:38:06.054Z,51.86
2023-01-20T02:39:06.102Z,52.49
2023-01-20T02:40:06.022Z,47.50
2023-01-20T02:41:06.024Z,47.38
2023-01-20T02:42:06.011Z,51.34
2023-01-20T02:43:06.012Z,52.47
2023-01-20T02:44:06.029Z,48.37
2023-01-20T02:45:05.976Z,45.96
2023-01-20T02:46:06.050Z,47.67
2023-01-20T02:47:05.955Z,49.50
2023-01-20T02:48:05.946Z,53.52
2023-01-20T02:49:06.044Z,49.06
2023-01-20T02:50:05.949Z,49.06
2023-01-20T02:51:05.917Z,61.94
2023-01-20T02:52:05.916Z,52.01
2023-01-20T02:53:05.901Z,49.36
2023-01-20T02:54:05.916Z,49.74
2023-01-20T02:55:05.902Z,51.28
2023-01-20T02:56:05.863Z,51.61
2023-01-20T02:57:05.881Z,49.22
2023-01-20T02:58:05.865Z,45.76
2023-01-20T02:59:05.846Z,63.12
2023-01-20T03:00:05.837Z,46.97
2023-01-20T03:01:05.950Z,62.46
2023-01-20T03:02:05.952Z,52.39
2023-01-20T03:03:05.848Z,51.53
2023-01-20T03:04:05.846Z,46.81
2023-01-20T03:05:05.809Z,46.97
2023-01-20T03:06:05.771Z,51.14
2023-01-20T03:07:05.766Z,60.36
2023-01-20T03:08:05.764Z,45.40
2023-01-20T03:09:05.768Z,53.39
2023-01-20T03:10:05.743Z,59.38
2023-01-20T03:11:05.720Z,49.57
2023-01-20T03:12:05.721Z,45.57
2023-01-20T03:13:05.745Z,58.45
2023-01-20T03:14:05.705Z,64.87
2023-01-20T03:15:05.689Z,55.70
2023-01-20T03:16:05.679Z,51.74
2023-01-20T03:17:05.677Z,48.89
2023-01-20T03:18:05.689Z,47.13
2023-01-20T03:19:05.763Z,52.36
2023-01-20T03:20:05.640Z,54.44
2023-01-20T03:21:05.627Z,47.13
2023-01-20T03:22:05.615Z,52.75
2023-01-20T03:23:05.632Z,51.47
2023-01-20T03:24:05.612Z,60.49
2023-01-20T03:25:05.595Z,53.01
2023-01-20T03:26:05.595Z,54.04
2023-01-20T03:27:05.581Z,49.23
2023-01-20T03:28:05.600Z,46.18
2023-01-20T03:29:05.588Z,48.26
2023-01-20T03:30:05.550Z,47.50
2023-01-20T03:31:05.596Z,51.94
2023-01-20T03:32:05.524Z,53.70
2023-01-20T03:33:05.516Z,59.10
2023-01-20T03:34:05.536Z,54.35
2023-01-20T03:35:05.505Z,55.15
2023-01-20T03:36:05.495Z,52.06
2023-01-20T03:37:05.492Z,47.54
2023-01-20T03:38:05.499Z,48.17
2023-01-20T03:39:05.458Z,52.17
2023-01-20T03:40:05.470Z,48.82
2023-01-20T03:41:05.443Z,52.70
2023-01-20T03:42:06.428Z,63.63
2023-01-20T03:43:05.443Z,53.57
2023-01-20T03:44:05.412Z,56.70
2023-01-20T03:45:05.397Z,55.90
2023-01-20T03:46:05.445Z,51.39
2023-01-20T03:47:05.395Z,53.85
2023-01-20T03:48:05.377Z,62.38
2023-01-20T03:49:05.355Z,56.96
2023-01-20T03:50:05.367Z,53.50
2023-01-20T03:51:05.339Z,66.61
2023-01-20T03:52:05.354Z,51.76
2023-01-20T03:53:05.331Z,51.32
2023-01-20T03:54:05.323Z,52.14
2023-01-20T03:55:05.321Z,59.12
2023-01-20T03:56:05.298Z,54.71
2023-01-20T03:57:05.303Z,54.60
2023-01-20T03:58:05.324Z,54.80
2023-01-20T03:59:05.281Z,65.19
2023-01-20T04:00:05.255Z,54.32
2023-01-20T04:01:17.791Z,55.62
2023-01-20T04:02:06.441Z,56.22
2023-01-20T04:03:05.271Z,55.78
2023-01-20T04:04:05.224Z,54.59
2023-01-20T04:05:05.222Z,56.18
2023-01-20T04:06:05.221Z,60.43
2023-01-20T04:07:05.186Z,55.74
2023-01-20T04:08:05.176Z,53.96
2023-01-20T04:09:06.183Z,64.22
2023-01-20T04:10:05.201Z,63.35
2023-01-20T04:11:05.153Z,57.17
2023-01-20T04:12:05.153Z,54.84
2023-01-20T04:13:05.128Z,54.72
2023-01-20T04:14:05.143Z,66.11
2023-01-20T04:15:05.137Z,53.84
2023-01-20T04:16:05.128Z,63.23
2023-01-20T04:17:05.100Z,54.99
2023-01-20T04:18:06.092Z,60.92
2023-01-20T04:19:05.088Z,57.39
2023-01-20T04:20:05.086Z,53.02
2023-01-20T04:21:05.068Z,66.68
2023-01-20T04:22:05.048Z,54.06
2023-01-20T04:23:05.028Z,56.60
2023-01-20T04:24:05.027Z,56.85
2023-01-20T04:25:05.030Z,58.09
2023-01-20T04:26:05.003Z,58.07
2023-01-20T04:27:05.020Z,58.26
2023-01-20T04:28:05.005Z,56.06
2023-01-20T04:29:04.967Z,57.86
2023-01-20T04:30:04.961Z,52.98
2023-01-20T04:31:05.062Z,55.45
2023-01-20T04:32:04.991Z,56.33
2023-01-20T04:33:04.948Z,58.51
2023-01-20T04:34:04.917Z,57.04
2023-01-20T04:35:04.922Z,60.09
2023-01-20T04:36:04.917Z,60.25
2023-01-20T04:37:04.919Z,58.39
2023-01-20T04:38:04.890Z,61.04
2023-01-20T04:39:04.889Z,58.73
2023-01-20T04:40:04.874Z,65.79
2023-01-20T04:41:04.876Z,59.35
2023-01-20T04:42:04.841Z,65.22
2023-01-20T04:43:04.836Z,55.15
2023-01-20T04:44:04.846Z,54.72
2023-01-20T04:45:04.855Z,66.81
2023-01-20T04:46:04.858Z,61.11
2023-01-20T04:47:04.814Z,57.09
2023-01-20T04:48:04.786Z,56.45
2023-01-20T04:49:04.778Z,58.37
2023-01-20T04:50:04.820Z,54.22
2023-01-20T04:51:04.780Z,55.86
2023-01-20T04:52:04.746Z,52.12
2023-01-20T04:53:04.745Z,52.07
2023-01-20T04:54:04.748Z,56.88
2023-01-20T04:55:04.716Z,54.50
2023-01-20T04:56:04.738Z,55.78
2023-01-20T04:57:04.698Z,61.31
2023-01-20T04:58:04.748Z,64.70
2023-01-20T04:59:04.679Z,63.36
2023-01-20T05:00:04.681Z,59.12
2023-01-20T05:01:04.754Z,54.69
2023-01-20T05:02:04.705Z,54.05
2023-01-20T05:03:04.736Z,54.77
2023-01-20T05:04:04.658Z,55.51
2023-01-20T05:05:04.622Z,56.34
2023-01-20T05:06:04.614Z,62.25
2023-01-20T05:07:04.609Z,56.86
2023-01-20T05:08:04.639Z,55.79
2023-01-20T05:09:04.595Z,57.50
2023-01-20T05:10:04.579Z,56.66
2023-01-20T05:11:04.605Z,56.34
2023-01-20T05:12:04.552Z,63.83
2023-01-20T05:13:04.557Z,56.71
2023-01-20T05:14:04.547Z,56.76
2023-01-20T05:15:04.564Z,59.49
2023-01-20T05:16:04.588Z,55.72
2023-01-20T05:17:04.521Z,58.91
2023-01-20T05:18:04.505Z,56.08
2023-01-20T05:19:04.509Z,56.86
2023-01-20T05:20:04.492Z,58.40
2023-01-20T05:21:04.502Z,57.72
2023-01-20T05:22:04.479Z,59.39
2023-01-20T05:23:04.483Z,58.49
2023-01-20T05:24:04.469Z,55.98
2023-01-20T05:25:04.453Z,58.70
2023-01-20T05:26:04.468Z,66.26
2023-01-20T05:27:04.423Z,59.99
2023-01-20T05:28:04.428Z,58.76
2023-01-20T05:29:04.425Z,56.85
2023-01-20T05:30:04.395Z,60.80
2023-01-20T05:31:04.532Z,61.07
2023-01-20T05:32:04.401Z,61.88
2023-01-20T05:33:04.400Z,62.46
2023-01-20T05:34:04.359Z,60.47
2023-01-20T05:35:04.349Z,58.00
2023-01-20T05:36:04.337Z,59.59
2023-01-20T05:37:04.319Z,60.20
2023-01-20T05:38:04.354Z,58.97
2023-01-20T05:39:04.318Z,59.17
2023-01-20T05:40:04.302Z,59.10
2023-01-20T05:41:04.293Z,58.37
2023-01-20T05:42:04.288Z,67.48
2023-01-20T05:43:04.282Z,60.20
2023-01-20T05:44:04.295Z,60.43
2023-01-20T05:45:04.259Z,57.54
2023-01-20T05:46:04.322Z,61.47
2023-01-20T05:47:04.234Z,58.19
2023-01-20T05:48:04.229Z,58.48
2023-01-20T05:49:04.224Z,58.89
2023-01-20T05:50:04.207Z,60.45
2023-01-20T05:51:04.200Z,57.90
2023-01-20T05:52:04.194Z,58.19
2023-01-20T05:53:04.173Z,60.83
2023-01-20T05:54:04.178Z,58.29
2023-01-20T05:55:04.174Z,56.00
2023-01-20T05:56:04.156Z,57.50
2023-01-20T05:57:04.199Z,65.79
2023-01-20T05:58:04.141Z,58.70
2023-01-20T05:59:04.138Z,60.23
2023-01-20T06:00:04.112Z,64.74
2023-01-20T06:01:04.125Z,59.09
2023-01-20T06:02:04.085Z,57.47
2023-01-20T06:03:04.132Z,60.09
2023-01-20T06:04:04.151Z,57.67
2023-01-20T06:05:04.080Z,58.17
2023-01-20T06:06:04.050Z,56.65
2023-01-20T06:07:04.035Z,58.24
2023-01-20T06:08:04.036Z,58.61
2023-01-20T06:09:04.021Z,59.45
2023-01-20T06:10:04.027Z,63.55
2023-01-20T06:11:03.995Z,59.14
2023-01-20T06:12:03.981Z,59.69
2023-01-20T06:13:04.049Z,63.92
2023-01-20T06:14:03.991Z,60.99
2023-01-20T06:15:04.090Z,58.69
2023-01-20T06:16:06.355Z,59.13
2023-01-20T06:17:04.015Z,58.97
2023-01-20T06:18:03.945Z,59.63
2023-01-20T06:19:03.930Z,60.09
2023-01-20T06:20:03.916Z,59.73
2023-01-20T06:21:03.919Z,58.96
2023-01-20T06:22:03.919Z,59.05
2023-01-20T06:23:03.902Z,60.29
2023-01-20T06:24:03.874Z,60.90
2023-01-20T06:25:03.871Z,59.52
2023-01-20T06:26:04.845Z,61.35
2023-01-20T06:27:03.888Z,61.28
2023-01-20T06:28:03.847Z,61.94
2023-01-20T06:29:03.843Z,63.21
2023-01-20T06:30:04.830Z,59.95
2023-01-20T06:31:03.926Z,61.35
2023-01-20T06:32:03.804Z,63.75
2023-01-20T06:33:03.795Z,60.01
2023-01-20T06:34:03.806Z,60.18
2023-01-20T06:35:03.785Z,64.85
2023-01-20T06:36:03.780Z,59.18
2023-01-20T06:37:03.782Z,59.81
2023-01-20T06:38:03.757Z,59.24
2023-01-20T06:39:03.749Z,66.16
2023-01-20T06:40:03.745Z,59.16
2023-01-20T06:41:03.862Z,59.69
2023-01-20T06:42:04.707Z,58.20
2023-01-20T06:43:03.677Z,59.06
2023-01-20T06:44:03.677Z,60.30
2023-01-20T06:45:03.673Z,60.18
2023-01-20T06:46:03.682Z,60.36
2023-01-20T06:47:03.711Z,64.71
2023-01-20T06:48:03.657Z,58.65
2023-01-20T06:49:03.624Z,59.41
2023-01-20T06:50:03.644Z,61.11
2023-01-20T06:51:03.625Z,62.99
2023-01-20T06:52:03.602Z,58.23
2023-01-20T06:53:04.202Z,60.17
2023-01-20T06:54:03.604Z,57.84
2023-01-20T06:55:03.574Z,58.15
2023-01-20T06:56:03.616Z,57.83
2023-01-20T06:57:03.565Z,58.92
2023-01-20T06:58:03.561Z,58.03
2023-01-20T06:59:03.530Z,57.00
2023-01-20T07:00:03.526Z,56.88
2023-01-20T07:01:03.700Z,59.12
2023-01-20T07:02:03.604Z,63.83
2023-01-20T07:03:03.610Z,58.68
2023-01-20T07:04:03.522Z,59.52
2023-01-20T07:05:03.486Z,60.30
2023-01-20T07:06:03.483Z,58.85
2023-01-20T07:07:03.474Z,65.72
2023-01-20T07:08:03.489Z,61.95
2023-01-20T07:09:03.439Z,58.50
2023-01-20T07:10:03.429Z,60.41
2023-01-20T07:11:03.425Z,59.97
2023-01-20T07:12:03.439Z,60.77
2023-01-20T07:13:03.438Z,56.81
2023-01-20T07:14:03.396Z,55.33
2023-01-20T07:15:03.387Z,66.08
2023-01-20T07:16:03.440Z,58.89
2023-01-20T07:17:03.467Z,59.25
2023-01-20T07:18:03.350Z,58.76
2023-01-20T07:19:03.344Z,60.44
2023-01-20T07:20:03.350Z,61.49
2023-01-20T07:21:03.351Z,60.31
2023-01-20T07:22:03.308Z,59.88
2023-01-20T07:23:03.321Z,60.16
2023-01-20T07:24:03.299Z,56.94
2023-01-20T07:25:03.309Z,58.76
2023-01-20T07:26:03.309Z,60.38
2023-01-20T07:27:03.276Z,58.61
2023-01-20T07:28:03.253Z,60.68
2023-01-20T07:29:03.270Z,66.18
2023-01-20T07:30:03.257Z,60.20
2023-01-20T07:31:03.228Z,57.71
2023-01-20T07:32:03.300Z,60.52
2023-01-20T07:33:03.204Z,61.32
2023-01-20T07:34:03.191Z,67.19
2023-01-20T07:35:03.298Z,57.94
2023-01-20T07:36:03.226Z,59.58
2023-01-20T07:37:03.253Z,58.62
2023-01-20T07:38:03.229Z,61.52
2023-01-20T07:39:03.138Z,60.51
2023-01-20T07:40:03.234Z,57.81
2023-01-20T07:41:05.002Z,59.00
2023-01-20T07:42:04.257Z,60.79
2023-01-20T07:43:03.117Z,60.08
2023-01-20T07:44:03.114Z,61.74
2023-01-20T07:45:03.086Z,61.68
2023-01-20T07:46:03.123Z,58.35
2023-01-20T07:47:03.076Z,58.94
2023-01-20T07:48:03.069Z,60.61
2023-01-20T07:49:03.089Z,59.06
2023-01-20T07:50:03.123Z,64.42
2023-01-20T07:51:03.029Z,60.04
2023-01-20T07:52:34.973Z,60.70
2023-01-20T07:53:03.032Z,59.21
2023-01-20T07:54:03.023Z,59.16
2023-01-20T07:55:02.997Z,63.63
2023-01-20T07:56:02.975Z,57.17
2023-01-20T07:57:02.974Z,58.81
2023-01-20T07:58:02.944Z,58.11
2023-01-20T07:59:02.942Z,60.45
2023-01-20T08:00:02.944Z,61.33
2023-01-20T08:01:03.052Z,61.70
2023-01-20T08:02:02.978Z,61.66
2023-01-20T08:03:02.926Z,57.41
2023-01-20T08:04:02.914Z,60.54
2023-01-20T08:05:02.921Z,60.52
2023-01-20T08:06:02.875Z,58.55
2023-01-20T08:07:02.853Z,60.17
2023-01-20T08:08:02.858Z,63.02
2023-01-20T08:09:02.857Z,62.29
2023-01-20T08:10:02.833Z,60.13
2023-01-20T08:11:02.813Z,60.45
2023-01-20T08:12:02.815Z,58.87
2023-01-20T08:13:02.786Z,60.50
2023-01-20T08:14:02.806Z,64.65
2023-01-20T08:15:02.792Z,59.15
2023-01-20T08:16:02.772Z,58.96
2023-01-20T08:17:02.753Z,62.01
2023-01-20T08:18:02.759Z,62.43
2023-01-20T08:19:02.756Z,56.51
2023-01-20T08:20:02.720Z,57.43
2023-01-20T08:21:02.716Z,54.10
2023-01-20T08:22:02.715Z,57.03
2023-01-20T08:23:02.715Z,56.60
2023-01-20T08:24:02.737Z,56.71
2023-01-20T08:25:02.694Z,57.03
2023-01-20T08:26:02.687Z,59.12
2023-01-20T08:27:02.686Z,62.64
2023-01-20T08:28:04.829Z,64.93
2023-01-20T08:29:02.638Z,59.55
2023-01-20T08:30:02.611Z,59.93
2023-01-20T08:31:02.744Z,66.05
2023-01-20T08:32:02.613Z,60.32
2023-01-20T08:33:02.614Z,59.24
2023-01-20T08:34:02.584Z,58.88
2023-01-20T08:35:02.608Z,59.70
2023-01-20T08:36:03.575Z,57.16
2023-01-20T08:37:02.568Z,59.39
2023-01-20T08:38:02.544Z,59.65
2023-01-20T08:39:02.587Z,61.92
2023-01-20T08:40:02.548Z,60.33
2023-01-20T08:41:02.517Z,58.25
2023-01-20T08:42:02.526Z,59.08
2023-01-20T08:43:02.490Z,60.23
2023-01-20T08:44:02.508Z,59.59
2023-01-20T08:45:03.526Z,60.17
2023-01-20T08:46:02.578Z,67.21
2023-01-20T08:47:02.459Z,56.64
2023-01-20T08:48:02.470Z,58.39
2023-01-20T08:49:02.438Z,60.99
2023-01-20T08:50:03.473Z,66.17
2023-01-20T08:51:02.483Z,59.00
2023-01-20T08:52:02.410Z,58.93
2023-01-20T08:53:02.411Z,58.50
2023-01-20T08:54:02.393Z,59.05
2023-01-20T08:55:02.394Z,59.63
2023-01-20T08:56:02.426Z,57.35
2023-01-20T08:57:02.356Z,57.56
2023-01-20T08:58:02.384Z,57.56
2023-01-20T08:59:02.356Z,59.70
2023-01-20T09:00:02.370Z,60.88
2023-01-20T09:01:02.376Z,66.00
2023-01-20T09:02:02.319Z,58.27
2023-01-20T09:03:02.325Z,58.62
2023-01-20T09:04:06.576Z,60.52
2023-01-20T09:05:03.296Z,58.22
2023-01-20T09:06:02.267Z,68.33
2023-01-20T09:07:02.283Z,57.88
2023-01-20T09:08:02.265Z,58.74
2023-01-20T09:09:04.447Z,57.69
2023-01-20T09:10:03.254Z,57.69
2023-01-20T09:11:02.235Z,59.34
2023-01-20T09:12:02.219Z,58.71
2023-01-20T09:13:02.217Z,55.89
2023-01-20T09:14:02.206Z,59.97
2023-01-20T09:15:04.837Z,58.73
2023-01-20T09:16:03.212Z,58.75
2023-01-20T09:17:02.203Z,58.98
2023-01-20T09:18:02.168Z,58.33
2023-01-20T09:19:02.159Z,60.12
2023-01-20T09:20:02.177Z,60.42
2023-01-20T09:21:02.149Z,60.83
2023-01-20T09:22:02.137Z,57.53
2023-01-20T09:23:02.135Z,58.70
2023-01-20T09:24:02.127Z,58.53
2023-01-20T09:25:02.121Z,59.98
2023-01-20T09:26:02.111Z,61.45
2023-01-20T09:27:02.095Z,60.61
2023-01-20T09:28:02.086Z,58.69
2023-01-20T09:29:02.063Z,58.03
2023-01-20T09:30:02.043Z,59.91
2023-01-20T09:31:02.154Z,63.26
2023-01-20T09:32:02.119Z,60.81
2023-01-20T09:33:02.022Z,59.89
2023-01-20T09:34:01.999Z,58.10
2023-01-20T09:35:02.018Z,58.46
2023-01-20T09:36:01.985Z,58.82
2023-01-20T09:37:02.011Z,58.34
2023-01-20T09:38:01.979Z,58.34
2023-01-20T09:39:01.966Z,58.67
2023-01-20T09:40:01.987Z,65.73
2023-01-20T09:41:01.928Z,59.51
2023-01-20T09:42:01.918Z,58.64
2023-01-20T09:43:01.934Z,58.81
2023-01-20T09:44:01.940Z,64.70
2023-01-20T09:45:01.929Z,66.46
2023-01-20T09:46:01.904Z,60.45
2023-01-20T09:47:01.902Z,57.20
2023-01-20T09:48:01.876Z,62.30
2023-01-20T09:49:01.870Z,59.82
2023-01-20T09:50:01.854Z,58.53
2023-01-20T09:51:01.864Z,62.72
2023-01-20T09:52:01.832Z,57.59
2023-01-20T09:53:01.815Z,69.02
2023-01-20T09:54:01.826Z,58.18
2023-01-20T09:55:01.803Z,64.19
2023-01-20T09:56:01.822Z,68.92
2023-01-20T09:57:01.781Z,58.44
2023-01-20T09:58:01.777Z,62.55
2023-01-20T09:59:01.772Z,65.13
2023-01-20T10:00:01.752Z,60.56
2023-01-20T10:01:01.763Z,59.98
2023-01-20T10:02:01.759Z,62.44
2023-01-20T10:03:01.731Z,62.57
2023-01-20T10:04:04.033Z,59.08
2023-01-20T10:05:01.771Z,64.61
2023-01-20T10:06:01.708Z,59.44
2023-01-20T10:07:01.694Z,57.21
2023-01-20T10:08:01.695Z,64.35
2023-01-20T10:09:05.894Z,58.99
2023-01-20T10:10:02.677Z,58.96
2023-01-20T10:11:01.651Z,57.52
2023-01-20T10:12:01.658Z,58.21
2023-01-20T10:13:02.632Z,57.70
2023-01-20T10:14:01.631Z,58.05
2023-01-20T10:15:01.620Z,58.54
2023-01-20T10:16:01.623Z,59.33
2023-01-20T10:17:01.612Z,57.19
2023-01-20T10:18:01.611Z,59.45
2023-01-20T10:19:01.588Z,60.27
2023-01-20T10:20:01.649Z,63.72
2023-01-20T10:21:01.563Z,60.31
2023-01-20T10:22:01.568Z,57.68
2023-01-20T10:23:01.573Z,55.61
2023-01-20T10:24:01.542Z,58.63
2023-01-20T10:25:01.551Z,58.93
2023-01-20T10:26:01.534Z,63.17
2023-01-20T10:27:01.500Z,59.31
2023-01-20T10:28:01.572Z,58.28
2023-01-20T10:29:01.542Z,58.77
2023-01-20T10:30:01.490Z,61.51
2023-01-20T10:31:01.557Z,60.98
2023-01-20T10:32:01.446Z,57.98
2023-01-20T10:33:01.453Z,58.04
2023-01-20T10:34:01.429Z,58.16
2023-01-20T10:35:01.435Z,57.15
2023-01-20T10:36:01.406Z,59.34
2023-01-20T10:37:01.393Z,62.39
2023-01-20T10:38:01.389Z,62.29
2023-01-20T10:39:01.376Z,58.34
2023-01-20T10:40:01.395Z,58.56
2023-01-20T10:41:01.368Z,58.42
2023-01-20T10:42:01.370Z,62.65
2023-01-20T10:43:01.334Z,59.61
2023-01-20T10:44:01.335Z,58.91
2023-01-20T10:45:01.356Z,60.08
2023-01-20T10:46:01.345Z,57.75
2023-01-20T10:47:01.304Z,58.70
2023-01-20T10:48:01.290Z,58.70
2023-01-20T10:49:01.281Z,63.96
2023-01-20T10:50:01.261Z,63.63
2023-01-20T10:51:01.282Z,60.31
2023-01-20T10:52:01.264Z,59.09
2023-01-20T10:53:01.242Z,64.81
2023-01-20T10:54:01.233Z,60.84
2023-01-20T10:55:01.224Z,57.65
2023-01-20T10:56:01.239Z,59.47
2023-01-20T10:57:01.202Z,59.34
2023-01-20T10:58:01.197Z,58.32
2023-01-20T10:59:01.181Z,57.86
2023-01-20T11:00:01.171Z,59.92
2023-01-20T11:01:01.184Z,68.07
2023-01-20T11:02:11.555Z,66.86
2023-01-20T11:03:03.186Z,59.52
2023-01-20T11:04:01.162Z,57.77
2023-01-20T11:05:01.131Z,58.66
2023-01-20T11:06:01.127Z,65.68
2023-01-20T11:07:01.132Z,60.72
2023-01-20T11:08:01.098Z,59.70
2023-01-20T11:09:01.095Z,62.56
2023-01-20T11:10:01.107Z,60.29
2023-01-20T11:11:01.097Z,64.65
2023-01-20T11:12:01.052Z,59.57
2023-01-20T11:13:01.065Z,58.90
2023-01-20T11:14:01.044Z,61.76
2023-01-20T11:15:01.063Z,60.78
2023-01-20T11:16:01.132Z,66.40
2023-01-20T11:17:01.040Z,58.96
2023-01-20T11:18:01.011Z,59.40
2023-01-20T11:19:00.997Z,62.12
2023-01-20T11:20:00.991Z,59.66
2023-01-20T11:21:00.987Z,58.25
2023-01-20T11:22:00.966Z,59.11
2023-01-20T11:23:00.950Z,57.60
2023-01-20T11:24:00.960Z,61.47
2023-01-20T11:25:00.939Z,57.26
2023-01-20T11:26:00.941Z,58.44
2023-01-20T11:27:00.915Z,58.55
2023-01-20T11:28:00.905Z,60.39
2023-01-20T11:29:00.918Z,59.17
2023-01-20T11:30:00.889Z,59.22
2023-01-20T11:31:01.033Z,57.27
2023-01-20T11:32:00.872Z,59.34
2023-01-20T11:33:00.892Z,58.35
2023-01-20T11:34:00.851Z,60.30
2023-01-20T11:35:00.832Z,57.84
2023-01-20T11:36:00.836Z,60.63
2023-01-20T11:37:00.824Z,60.66
2023-01-20T11:38:00.824Z,66.41
2023-01-20T11:39:00.825Z,57.40
2023-01-20T11:40:00.807Z,63.17
2023-01-20T11:41:00.797Z,64.08
2023-01-20T11:42:00.779Z,58.17
2023-01-20T11:43:00.782Z,57.23
2023-01-20T11:44:00.746Z,57.60
2023-01-20T11:45:19.781Z,59.85
2023-01-20T11:46:02.748Z,60.74
2023-01-20T11:47:00.723Z,63.19
2023-01-20T11:48:00.732Z,58.76
2023-01-20T11:49:00.701Z,59.30
2023-01-20T11:50:00.692Z,56.64
2023-01-20T11:51:00.719Z,59.05
2023-01-20T11:52:00.749Z,61.04
2023-01-20T11:53:00.664Z,60.39
2023-01-20T11:54:00.662Z,58.71
2023-01-20T11:55:00.642Z,59.64
2023-01-20T11:56:00.656Z,60.67
2023-01-20T11:57:01.620Z,58.62
2023-01-20T11:58:00.614Z,59.33
2023-01-20T11:59:00.620Z,59.19
2023-01-20T12:00:00.612Z,58.20
2023-01-20T12:01:00.584Z,58.41
2023-01-20T12:02:00.637Z,58.22
2023-01-20T12:03:00.570Z,64.02
2023-01-20T12:04:00.647Z,57.87
2023-01-20T12:05:00.541Z,61.45
2023-01-20T12:06:00.555Z,58.54
2023-01-20T12:07:00.523Z,60.20
2023-01-20T12:08:01.560Z,59.40
2023-01-20T12:09:00.524Z,62.55
2023-01-20T12:10:00.489Z,63.65
2023-01-20T12:11:00.492Z,61.33
2023-01-20T12:12:00.500Z,59.41
2023-01-20T12:13:00.483Z,58.10
2023-01-20T12:14:00.474Z,60.43
2023-01-20T12:15:00.425Z,58.68
2023-01-20T12:16:00.581Z,58.03
2023-01-20T12:17:00.429Z,63.10
2023-01-20T12:18:00.414Z,61.38
2023-01-20T12:19:02.780Z,59.23
2023-01-20T12:20:00.419Z,60.50
2023-01-20T12:21:00.379Z,66.52
2023-01-20T12:22:00.378Z,59.87
2023-01-20T12:23:00.369Z,59.53
2023-01-20T12:24:03.033Z,59.74
2023-01-20T12:25:00.376Z,59.95
2023-01-20T12:26:00.348Z,59.91
2023-01-20T12:27:00.321Z,59.99
2023-01-20T12:28:00.310Z,60.72
2023-01-20T12:29:00.294Z,62.34
2023-01-20T12:30:00.314Z,59.57
2023-01-20T12:31:00.351Z,58.72
2023-01-20T12:32:00.361Z,60.38
2023-01-20T12:33:00.372Z,66.06
2023-01-20T12:34:00.266Z,58.71
2023-01-20T12:35:00.243Z,57.97
2023-01-20T12:36:02.750Z,58.80
2023-01-20T12:37:00.227Z,59.91
2023-01-20T12:38:00.211Z,64.61
2023-01-20T12:39:00.206Z,61.80
2023-01-20T12:40:00.210Z,59.65
2023-01-20T12:41:00.206Z,65.74
2023-01-20T12:42:02.542Z,58.19
2023-01-20T12:43:00.178Z,61.12
2023-01-20T12:44:00.148Z,60.95
2023-01-20T12:45:00.148Z,62.37
2023-01-20T12:46:00.218Z,66.22
2023-01-20T12:47:00.134Z,60.09
2023-01-20T12:48:00.134Z,59.74
2023-01-20T12:49:00.137Z,60.65
2023-01-20T12:50:00.118Z,60.17
2023-01-20T12:51:00.097Z,61.43
2023-01-20T12:52:00.104Z,67.93